createdAt,value
2018-06-03T00:01:09.810Z,4.10
2018-06-03T00:03:36.206Z,3.53
2018-06-03T00:06:02.611Z,3.67
2018-06-03T00:10:59.955Z,3.40
2018-06-03T00:13:26.418Z,3.90
2018-06-03T00:15:52.790Z,3.70
2018-06-03T00:18:19.191Z,4.00
2018-06-03T00:20:45.641Z,3.80
2018-06-03T00:23:12.054Z,3.70
2018-06-03T00:25:38.532Z,3.47
2018-06-03T00:28:04.976Z,3.57
2018-06-03T00:30:31.370Z,3.63
2018-06-03T00:32:57.750Z,3.73
2018-06-03T00:35:24.186Z,3.73
2018-06-03T00:37:50.558Z,7.07
2018-06-03T00:40:16.987Z,3.33
2018-06-03T00:42:44.879Z,3.77
2018-06-03T00:45:11.359Z,3.80
2018-06-03T00:47:37.827Z,3.50
2018-06-03T00:50:04.244Z,3.80
2018-06-03T00:52:30.700Z,3.70
2018-06-03T00:54:57.129Z,3.50
2018-06-03T00:57:23.602Z,3.70
2018-06-03T00:59:50.035Z,3.90
2018-06-03T01:02:16.431Z,3.53
2018-06-03T01:04:44.698Z,3.97
2018-06-03T01:07:11.289Z,3.67
2018-06-03T01:09:37.845Z,3.60
2018-06-03T01:12:04.221Z,3.40
2018-06-03T01:14:30.779Z,3.30
2018-06-03T01:16:57.215Z,3.50
2018-06-03T01:19:23.638Z,3.20
2018-06-03T01:21:50.060Z,3.43
2018-06-03T01:24:16.440Z,3.70
2018-06-03T01:26:42.921Z,3.77
2018-06-03T01:29:09.309Z,3.80
2018-06-03T01:31:35.729Z,3.33
2018-06-03T01:34:02.183Z,3.60
2018-06-03T01:36:28.567Z,3.90
2018-06-03T01:38:55.108Z,3.43
2018-06-03T01:41:21.495Z,3.00
2018-06-03T01:43:47.961Z,3.40
2018-06-03T01:46:14.371Z,3.83
2018-06-03T01:48:40.754Z,3.70
2018-06-03T01:51:07.246Z,3.47
2018-06-03T01:53:33.728Z,3.83
2018-06-03T01:56:00.128Z,3.90
2018-06-03T01:58:26.490Z,3.43
2018-06-03T02:00:53.032Z,3.50
2018-06-03T02:03:19.411Z,3.30
2018-06-03T02:05:45.818Z,3.00
2018-06-03T02:08:12.201Z,3.53
2018-06-03T02:10:38.582Z,3.77
2018-06-03T02:13:04.962Z,3.40
2018-06-03T02:15:31.359Z,3.57
2018-06-03T02:17:57.794Z,3.50
2018-06-03T02:20:26.215Z,3.40
2018-06-03T02:22:52.651Z,3.37
2018-06-03T02:25:19.043Z,3.50
2018-06-03T02:27:45.421Z,3.67
2018-06-03T02:30:11.801Z,3.30
2018-06-03T02:32:38.167Z,3.10
2018-06-03T02:35:04.543Z,3.50
2018-06-03T02:37:30.956Z,3.10
2018-06-03T02:39:57.365Z,3.20
2018-06-03T02:42:23.753Z,3.30
2018-06-03T02:44:50.152Z,3.20
2018-06-03T02:47:16.583Z,3.90
2018-06-03T02:49:42.978Z,3.07
2018-06-03T02:52:09.396Z,3.33
2018-06-03T02:54:36.883Z,3.27
2018-06-03T02:57:03.293Z,3.23
2018-06-03T02:59:29.665Z,3.63
2018-06-03T03:01:56.121Z,3.17
2018-06-03T03:04:22.506Z,3.30
2018-06-03T03:06:48.904Z,3.33
2018-06-03T03:09:15.370Z,3.50
2018-06-03T03:11:41.742Z,3.50
2018-06-03T03:14:08.154Z,3.63
2018-06-03T03:16:34.523Z,3.47
2018-06-03T03:19:00.897Z,3.63
2018-06-03T03:21:27.262Z,3.27
2018-06-03T03:23:53.690Z,3.33
2018-06-03T03:26:20.059Z,3.70
2018-06-03T03:28:46.426Z,3.03
2018-06-03T03:31:12.827Z,3.03
2018-06-03T03:33:39.241Z,3.60
2018-06-03T03:36:05.599Z,3.70
2018-06-03T03:38:31.967Z,3.13
2018-06-03T03:40:58.377Z,3.50
2018-06-03T03:43:24.746Z,3.40
2018-06-03T03:45:51.108Z,3.80
2018-06-03T03:48:17.515Z,3.20
2018-06-03T03:50:43.898Z,3.00
2018-06-03T03:53:10.319Z,3.43
2018-06-03T03:55:36.690Z,3.43
2018-06-03T03:58:03.084Z,3.50
2018-06-03T04:00:29.506Z,3.20
2018-06-03T04:02:55.912Z,3.07
2018-06-03T04:05:22.275Z,2.83
2018-06-03T04:07:48.661Z,3.50
2018-06-03T04:10:15.115Z,4.13
2018-06-03T04:12:41.492Z,3.50
2018-06-03T04:15:07.903Z,3.60
2018-06-03T04:17:34.260Z,4.03
2018-06-03T04:20:00.653Z,3.10
2018-06-03T04:22:27.052Z,3.50
2018-06-03T04:24:53.451Z,3.10
2018-06-03T04:27:19.891Z,3.47
2018-06-03T04:29:46.255Z,3.53
2018-06-03T04:32:12.614Z,3.50
2018-06-03T04:34:38.979Z,3.33
2018-06-03T04:37:05.395Z,3.10
2018-06-03T04:39:31.775Z,3.40
2018-06-03T04:41:58.140Z,3.00
2018-06-03T04:44:24.521Z,3.30
2018-06-03T04:46:50.907Z,3.13
2018-06-03T04:49:17.325Z,3.30
2018-06-03T04:51:43.695Z,3.70
2018-06-03T04:54:10.102Z,3.60
2018-06-03T04:56:36.509Z,3.43
2018-06-03T04:59:02.928Z,3.50
2018-06-03T05:01:29.349Z,3.20
2018-06-03T05:03:55.780Z,3.60
2018-06-03T05:06:22.161Z,3.33
2018-06-03T05:08:48.526Z,3.10
2018-06-03T05:11:14.894Z,3.20
2018-06-03T05:13:41.266Z,3.50
2018-06-03T05:16:07.676Z,3.30
2018-06-03T05:18:34.053Z,3.57
2018-06-03T05:21:00.487Z,3.23
2018-06-03T05:23:26.894Z,3.30
2018-06-03T05:25:53.371Z,3.43
2018-06-03T05:28:19.733Z,3.90
2018-06-03T05:30:46.118Z,3.30
2018-06-03T05:33:12.500Z,3.43
2018-06-03T05:35:38.918Z,4.50
2018-06-03T05:38:05.308Z,3.30
2018-06-03T05:40:31.676Z,3.47
2018-06-03T05:42:58.042Z,3.37
2018-06-03T05:45:24.399Z,3.27
2018-06-03T05:47:50.803Z,3.60
2018-06-03T05:50:17.205Z,3.10
2018-06-03T05:52:43.562Z,4.47
2018-06-03T05:55:09.982Z,3.27
2018-06-03T05:57:36.346Z,3.60
2018-06-03T06:00:02.751Z,3.40
2018-06-03T06:02:29.121Z,3.60
2018-06-03T06:04:55.573Z,3.47
2018-06-03T06:07:21.945Z,3.20
2018-06-03T06:09:48.311Z,3.40
2018-06-03T06:12:14.789Z,3.77
2018-06-03T06:14:41.180Z,3.57
2018-06-03T06:17:07.548Z,3.70
2018-06-03T06:19:33.918Z,3.40
2018-06-03T06:22:00.291Z,3.10
2018-06-03T06:24:26.673Z,3.33
2018-06-03T06:26:53.121Z,3.13
2018-06-03T06:29:19.552Z,3.53
2018-06-03T06:31:46.024Z,3.33
2018-06-03T06:34:12.421Z,3.53
2018-06-03T06:36:38.790Z,3.63
2018-06-03T06:39:05.168Z,3.43
2018-06-03T06:41:31.561Z,3.67
2018-06-03T06:43:58.004Z,3.20
2018-06-03T06:46:24.406Z,3.50
2018-06-03T06:48:50.785Z,3.57
2018-06-03T06:51:17.159Z,3.47
2018-06-03T06:53:43.543Z,3.90
2018-06-03T06:56:09.982Z,3.30
2018-06-03T06:58:36.408Z,3.67
2018-06-03T07:01:02.818Z,3.30
2018-06-03T07:03:29.194Z,3.53
2018-06-03T07:05:55.609Z,3.80
2018-06-03T07:08:21.981Z,3.30
2018-06-03T07:10:48.408Z,3.70
2018-06-03T07:13:14.864Z,3.80
2018-06-03T07:15:41.314Z,3.60
2018-06-03T07:18:07.640Z,3.77
2018-06-03T07:20:34.009Z,3.60
2018-06-03T07:23:00.404Z,3.70
2018-06-03T07:25:26.756Z,3.20
2018-06-03T07:27:53.107Z,3.93
2018-06-03T07:30:19.447Z,3.50
2018-06-03T07:32:45.777Z,3.53
2018-06-03T07:35:12.110Z,3.60
2018-06-03T07:37:38.505Z,3.40
2018-06-03T07:40:04.890Z,3.50
2018-06-03T07:42:31.261Z,4.03
2018-06-03T07:44:57.579Z,3.30
2018-06-03T07:47:23.975Z,3.10
2018-06-03T07:49:50.327Z,3.60
2018-06-03T07:52:16.652Z,3.70
2018-06-03T07:54:42.991Z,3.73
2018-06-03T07:57:09.356Z,3.40
2018-06-03T07:59:35.688Z,3.70
2018-06-03T08:02:02.085Z,3.80
2018-06-03T08:04:28.421Z,3.40
2018-06-03T08:06:54.841Z,3.60
2018-06-03T08:09:21.165Z,3.83
2018-06-03T08:11:47.510Z,4.03
2018-06-03T08:14:13.895Z,3.90
2018-06-03T08:16:40.231Z,3.30
2018-06-03T08:19:06.593Z,4.00
2018-06-03T08:21:32.970Z,3.70
2018-06-03T08:23:59.354Z,3.47
2018-06-03T08:26:25.707Z,4.20
2018-06-03T08:28:52.032Z,3.50
2018-06-03T08:31:18.369Z,3.60
2018-06-03T08:33:44.753Z,3.47
2018-06-03T08:36:11.089Z,3.37
2018-06-03T08:38:37.463Z,4.23
2018-06-03T08:41:03.806Z,4.00
2018-06-03T08:43:30.240Z,4.30
2018-06-03T08:45:56.695Z,3.80
2018-06-03T08:48:23.125Z,4.37
2018-06-03T08:50:49.443Z,3.87
2018-06-03T08:53:15.761Z,3.63
2018-06-03T08:55:42.114Z,3.90
2018-06-03T08:58:08.461Z,4.37
2018-06-03T09:00:34.892Z,4.20
2018-06-03T09:03:01.189Z,4.20
2018-06-03T09:05:27.530Z,3.77
2018-06-03T09:07:53.920Z,4.10
2018-06-03T09:10:20.254Z,3.90
2018-06-03T09:12:46.580Z,3.80
2018-06-03T09:15:12.940Z,3.93
2018-06-03T09:17:39.303Z,3.77
2018-06-03T09:20:05.676Z,3.97
2018-06-03T09:22:32.005Z,3.90
2018-06-03T09:24:58.336Z,3.97
2018-06-03T09:27:24.680Z,4.17
2018-06-03T09:29:51.020Z,4.23
2018-06-03T09:32:17.359Z,4.07
2018-06-03T09:34:43.807Z,4.20
2018-06-03T09:37:10.181Z,4.17
2018-06-03T09:39:36.530Z,3.73
2018-06-03T09:42:02.875Z,3.93
2018-06-03T09:44:29.342Z,3.83
2018-06-03T09:46:55.673Z,4.17
2018-06-03T09:49:22.000Z,3.90
2018-06-03T09:51:48.325Z,4.50
2018-06-03T09:54:14.655Z,4.63
2018-06-03T09:56:40.992Z,3.80
2018-06-03T09:59:07.308Z,4.73
2018-06-03T10:01:33.629Z,4.57
2018-06-03T10:03:59.975Z,4.60
2018-06-03T10:06:26.364Z,4.83
2018-06-03T10:08:52.696Z,3.90
2018-06-03T10:11:19.016Z,4.53
2018-06-03T10:13:45.462Z,4.60
2018-06-03T10:16:11.803Z,4.10
2018-06-03T10:18:38.163Z,4.13
2018-06-03T10:21:04.502Z,4.40
2018-06-03T10:23:30.844Z,4.40
2018-06-03T10:25:57.177Z,4.07
2018-06-03T10:28:23.514Z,4.20
2018-06-03T10:30:49.839Z,4.40
2018-06-03T10:33:16.181Z,4.47
2018-06-03T10:35:42.548Z,5.00
2018-06-03T10:38:12.461Z,4.10
2018-06-03T10:40:39.852Z,4.40
2018-06-03T10:43:06.188Z,6.10
2018-06-03T10:45:32.507Z,4.90
2018-06-03T10:47:58.877Z,4.57
2018-06-03T10:50:25.257Z,4.53
2018-06-03T10:52:51.582Z,4.70
2018-06-03T10:55:17.976Z,4.77
2018-06-03T10:57:44.301Z,4.37
2018-06-03T11:00:10.668Z,4.33
2018-06-03T11:02:37.223Z,6.00
2018-06-03T11:05:03.626Z,4.63
2018-06-03T11:07:29.971Z,4.33
2018-06-03T11:09:56.360Z,4.60
2018-06-03T11:12:22.742Z,4.73
2018-06-03T11:14:49.071Z,4.70
2018-06-03T11:17:15.648Z,5.20
2018-06-03T11:19:41.980Z,4.60
2018-06-03T11:22:09.029Z,7.10
2018-06-03T11:24:35.446Z,10.60
2018-06-03T11:27:01.817Z,5.40
2018-06-03T11:29:28.159Z,4.50
2018-06-03T11:31:54.492Z,4.43
2018-06-03T11:34:20.831Z,4.50
2018-06-03T11:36:47.225Z,4.93
2018-06-03T11:39:13.552Z,4.73
2018-06-03T11:41:39.872Z,4.90
2018-06-03T11:44:06.272Z,4.43
2018-06-03T11:46:32.626Z,4.73
2018-06-03T11:48:59.067Z,4.60
2018-06-03T11:51:25.406Z,4.77
2018-06-03T11:53:51.829Z,4.77
2018-06-03T11:56:18.156Z,5.43
2018-06-03T11:58:44.590Z,5.70
2018-06-03T12:01:11.194Z,5.20
2018-06-03T12:03:37.516Z,4.80
2018-06-03T12:06:03.856Z,5.10
2018-06-03T12:08:30.239Z,4.50
2018-06-03T12:10:56.654Z,4.60
2018-06-03T12:13:23.044Z,5.20
2018-06-03T12:15:49.420Z,4.37
2018-06-03T12:18:15.830Z,4.57
2018-06-03T12:20:42.215Z,4.90
2018-06-03T12:23:08.557Z,4.50
2018-06-03T12:25:34.888Z,4.60
2018-06-03T12:28:01.289Z,5.00
2018-06-03T12:30:27.620Z,6.60
2018-06-03T12:32:53.950Z,4.83
2018-06-03T12:35:20.370Z,5.27
2018-06-03T12:37:46.777Z,5.10
2018-06-03T12:40:13.172Z,5.60
2018-06-03T12:42:39.657Z,5.10
2018-06-03T12:45:07.045Z,5.20
2018-06-03T12:47:33.427Z,5.23
2018-06-03T12:49:59.919Z,5.00
2018-06-03T12:52:26.278Z,4.87
2018-06-03T12:54:53.578Z,5.23
2018-06-03T12:57:19.900Z,6.03
2018-06-03T12:59:46.222Z,5.17
2018-06-03T13:02:12.569Z,5.20
2018-06-03T13:04:38.956Z,5.40
2018-06-03T13:07:05.404Z,4.87
2018-06-03T13:09:31.740Z,5.20
2018-06-03T13:11:58.276Z,5.27
2018-06-03T13:14:24.709Z,5.20
2018-06-03T13:16:51.093Z,5.00
2018-06-03T13:19:17.525Z,5.50
2018-06-03T13:21:43.916Z,5.67
2018-06-03T13:24:10.397Z,5.50
2018-06-03T13:26:36.765Z,5.77
2018-06-03T13:29:03.133Z,5.20
2018-06-03T13:31:29.512Z,5.50
2018-06-03T13:33:56.176Z,5.50
2018-06-03T13:36:22.549Z,5.17
2018-06-03T13:38:48.892Z,7.53
2018-06-03T13:41:15.291Z,5.20
2018-06-03T13:43:41.869Z,5.83
2018-06-03T13:46:08.200Z,5.33
2018-06-03T13:48:34.553Z,5.43
2018-06-03T13:51:01.685Z,6.00
2018-06-03T13:53:28.026Z,5.50
2018-06-03T13:55:54.372Z,5.40
2018-06-03T13:58:20.710Z,5.40
2018-06-03T14:00:47.141Z,5.70
2018-06-03T14:03:13.514Z,5.43
2018-06-03T14:05:39.873Z,6.43
2018-06-03T14:08:08.404Z,5.73
2018-06-03T14:10:34.878Z,5.30
2018-06-03T14:13:01.260Z,5.70
2018-06-03T14:15:27.603Z,6.17
2018-06-03T14:17:53.962Z,5.40
2018-06-03T14:20:20.348Z,6.07
2018-06-03T14:22:46.704Z,6.43
2018-06-03T14:25:13.053Z,6.10
2018-06-03T14:27:39.508Z,6.03
2018-06-03T14:30:05.927Z,5.80
2018-06-03T14:32:34.246Z,7.27
2018-06-03T14:35:00.670Z,6.77
2018-06-03T14:37:27.570Z,6.10
2018-06-03T14:39:54.004Z,6.13
2018-06-03T14:42:20.449Z,6.23
2018-06-03T14:44:46.911Z,6.20
2018-06-03T14:47:13.296Z,5.47
2018-06-03T14:49:39.704Z,5.80
2018-06-03T14:52:06.522Z,6.20
2018-06-03T14:54:32.893Z,6.10
2018-06-03T14:56:59.472Z,5.90
2018-06-03T14:59:25.792Z,5.93
2018-06-03T15:01:52.291Z,5.97
2018-06-03T15:04:18.662Z,5.50
2018-06-03T15:06:45.137Z,6.30
2018-06-03T15:09:11.542Z,6.03
2018-06-03T15:11:37.885Z,5.70
2018-06-03T15:14:04.221Z,6.40
2018-06-03T15:16:30.718Z,6.40
2018-06-03T15:18:59.087Z,6.10
2018-06-03T15:21:25.640Z,5.80
2018-06-03T15:23:52.085Z,6.20
2018-06-03T15:26:18.474Z,6.13
2018-06-03T15:28:44.857Z,6.13
2018-06-03T15:31:11.347Z,6.30
2018-06-03T15:33:38.806Z,6.40
2018-06-03T15:36:05.174Z,6.73
2018-06-03T15:38:31.552Z,6.47
2018-06-03T15:40:57.911Z,6.83
2018-06-03T15:43:24.312Z,6.20
2018-06-03T15:45:51.510Z,6.60
2018-06-03T15:48:18.022Z,6.67
2018-06-03T15:50:44.426Z,6.33
2018-06-03T15:53:10.772Z,6.43
2018-06-03T15:55:37.114Z,6.17
2018-06-03T15:58:03.505Z,6.80
2018-06-03T16:00:29.912Z,6.67
2018-06-03T16:02:56.407Z,6.60
2018-06-03T16:05:22.877Z,6.90
2018-06-03T16:07:49.265Z,6.30
2018-06-03T16:10:15.679Z,6.67
2018-06-03T16:12:42.024Z,6.07
2018-06-03T16:15:08.400Z,6.87
2018-06-03T16:17:34.839Z,6.67
2018-06-03T16:20:01.169Z,6.63
2018-06-03T16:22:27.559Z,6.87
2018-06-03T16:24:54.340Z,6.30
2018-06-03T16:27:20.800Z,7.47
2018-06-03T16:29:47.159Z,6.67
2018-06-03T16:32:13.547Z,6.63
2018-06-03T16:34:39.888Z,6.73
2018-06-03T16:37:06.790Z,7.50
2018-06-03T16:39:33.209Z,6.93
2018-06-03T16:41:59.806Z,6.67
2018-06-03T16:44:26.565Z,6.40
2018-06-03T16:46:53.030Z,7.00
2018-06-03T16:49:19.405Z,7.47
2018-06-03T16:51:45.741Z,7.00
2018-06-03T16:54:12.119Z,7.43
2018-06-03T16:56:38.485Z,6.10
2018-06-03T16:59:04.908Z,6.90
2018-06-03T17:01:31.291Z,7.07
2018-06-03T17:03:57.661Z,7.77
2018-06-03T17:06:24.140Z,6.70
2018-06-03T17:08:50.553Z,7.17
2018-06-03T17:11:16.935Z,6.73
2018-06-03T17:13:43.286Z,6.70
2018-06-03T17:16:09.662Z,6.23
2018-06-03T17:18:36.001Z,7.23
2018-06-03T17:21:02.392Z,6.83
2018-06-03T17:23:28.754Z,6.80
2018-06-03T17:25:55.076Z,7.57
2018-06-03T17:28:21.581Z,6.60
2018-06-03T17:30:48.128Z,7.90
2018-06-03T17:33:14.532Z,7.00
2018-06-03T17:35:40.938Z,7.10
2018-06-03T17:38:07.369Z,7.50
2018-06-03T17:40:33.769Z,6.43
2018-06-03T17:43:00.220Z,6.37
2018-06-03T17:45:26.667Z,6.97
2018-06-03T17:47:53.129Z,7.03
2018-06-03T17:50:19.500Z,7.43
2018-06-03T17:52:46.420Z,7.73
2018-06-03T17:55:12.749Z,7.50
2018-06-03T17:57:39.396Z,7.50
2018-06-03T18:00:05.778Z,7.80
2018-06-03T18:02:32.092Z,7.60
2018-06-03T18:04:58.521Z,7.00
2018-06-03T18:07:24.858Z,7.40
2018-06-03T18:09:51.270Z,7.10
2018-06-03T18:12:17.619Z,7.17
2018-06-03T18:14:45.257Z,7.03
2018-06-03T18:17:11.790Z,6.80
2018-06-03T18:19:38.147Z,7.73
2018-06-03T18:22:04.540Z,7.10
2018-06-03T18:24:30.944Z,7.40
2018-06-03T18:26:57.325Z,7.37
2018-06-03T18:29:23.684Z,7.37
2018-06-03T18:31:50.091Z,7.77
2018-06-03T18:34:16.424Z,7.20
2018-06-03T18:36:42.789Z,7.63
2018-06-03T18:39:09.161Z,8.03
2018-06-03T18:41:35.703Z,7.57
2018-06-03T18:44:02.046Z,7.17
2018-06-03T18:46:28.589Z,7.13
2018-06-03T18:51:27.446Z,7.00
2018-06-03T18:53:53.780Z,8.03
2018-06-03T18:56:20.229Z,6.93
2018-06-03T18:58:46.605Z,7.73
2018-06-03T19:01:12.938Z,7.83
2018-06-03T19:03:39.286Z,7.30
2018-06-03T19:06:06.440Z,7.80
2018-06-03T19:08:32.866Z,6.97
2018-06-03T19:10:59.192Z,7.90
2018-06-03T19:13:25.732Z,7.17
2018-06-03T19:15:52.113Z,7.30
2018-06-03T19:18:18.585Z,7.80
2018-06-03T19:20:44.985Z,8.07
2018-06-03T19:23:11.335Z,7.43
2018-06-03T19:25:37.712Z,6.70
2018-06-03T19:28:04.082Z,8.20
2018-06-03T19:30:30.691Z,8.23
2018-06-03T19:32:57.242Z,7.20
2018-06-03T19:35:23.566Z,7.80
2018-06-03T19:37:50.021Z,6.97
2018-06-03T19:40:16.346Z,7.60
2018-06-03T19:42:42.919Z,7.57
2018-06-03T19:45:09.315Z,7.53
2018-06-03T19:47:35.953Z,7.50
2018-06-03T19:50:02.305Z,7.37
2018-06-03T19:52:28.769Z,7.13
2018-06-03T19:54:55.085Z,6.93
2018-06-03T19:57:21.472Z,7.90
2018-06-03T19:59:47.860Z,6.83
2018-06-03T20:02:14.245Z,7.40
2018-06-03T20:04:40.645Z,7.77
2018-06-03T20:07:07.055Z,7.90
2018-06-03T20:09:33.437Z,7.40
2018-06-03T20:11:59.777Z,6.53
2018-06-03T20:14:26.110Z,7.63
2018-06-03T20:16:53.629Z,6.97
2018-06-03T20:19:19.984Z,7.37
2018-06-03T20:21:46.429Z,6.93
2018-06-03T20:24:12.783Z,6.70
2018-06-03T20:26:39.155Z,7.13
2018-06-03T20:29:05.506Z,7.47
2018-06-03T20:31:31.882Z,7.60
2018-06-03T20:33:58.197Z,8.37
2018-06-03T20:36:24.595Z,6.77
2018-06-03T20:38:50.968Z,7.43
2018-06-03T20:41:19.029Z,7.83
2018-06-03T20:43:45.352Z,7.53
2018-06-03T20:46:11.741Z,8.00
2018-06-03T20:48:38.160Z,7.23
2018-06-03T20:51:06.002Z,7.70
2018-06-03T20:53:32.367Z,7.53
2018-06-03T20:55:58.741Z,7.50
2018-06-03T20:58:25.380Z,7.30
2018-06-03T21:00:51.756Z,7.30
2018-06-03T21:03:18.119Z,7.10
2018-06-03T21:05:44.481Z,7.90
2018-06-03T21:08:12.505Z,7.73
2018-06-03T21:10:38.980Z,7.30
2018-06-03T21:13:05.300Z,6.97
2018-06-03T21:15:31.650Z,7.70
2018-06-03T21:17:58.167Z,7.47
2018-06-03T21:20:24.504Z,6.77
2018-06-03T21:22:50.884Z,7.40
2018-06-03T21:25:18.072Z,7.53
2018-06-03T21:27:44.703Z,7.23
2018-06-03T21:30:11.074Z,8.10
2018-06-03T21:32:37.413Z,6.70
2018-06-03T21:35:04.017Z,7.37
2018-06-03T21:37:30.426Z,7.13
2018-06-03T21:39:56.948Z,7.63
2018-06-03T21:42:23.476Z,7.13
2018-06-03T21:44:49.837Z,7.60
2018-06-03T21:47:17.465Z,6.80
2018-06-03T21:49:43.847Z,7.17
2018-06-03T21:52:10.505Z,6.67
2018-06-03T21:54:36.852Z,7.70
2018-06-03T21:57:03.206Z,7.00
2018-06-03T21:59:30.009Z,7.80
2018-06-03T22:01:56.453Z,7.73
2018-06-03T22:04:22.785Z,7.67
2018-06-03T22:06:49.614Z,7.13
2018-06-03T22:09:15.975Z,7.17
2018-06-03T22:11:42.324Z,7.40
2018-06-03T22:14:08.784Z,7.20
2018-06-03T22:16:35.278Z,7.27
2018-06-03T22:19:01.675Z,7.37
2018-06-03T22:21:28.016Z,7.13
2018-06-03T22:23:54.341Z,7.33
2018-06-03T22:26:20.744Z,7.53
2018-06-03T22:28:48.305Z,7.30
2018-06-03T22:31:14.748Z,7.00
2018-06-03T22:33:41.100Z,7.60
2018-06-03T22:36:07.474Z,7.33
2018-06-03T22:38:34.031Z,7.50
2018-06-03T22:41:00.449Z,7.77
2018-06-03T22:43:26.942Z,8.23
2018-06-03T22:45:53.331Z,7.50
2018-06-03T22:48:19.667Z,7.30
2018-06-03T22:50:46.364Z,7.80
2018-06-03T22:53:12.696Z,7.77
2018-06-03T22:55:39.061Z,7.27
2018-06-03T22:58:05.395Z,7.67
2018-06-03T23:00:31.878Z,7.47
2018-06-03T23:02:58.688Z,7.20
2018-06-03T23:05:25.078Z,7.97
2018-06-03T23:07:51.409Z,6.90
2018-06-03T23:10:17.737Z,7.77
2018-06-03T23:12:44.099Z,7.40
2018-06-03T23:15:12.249Z,7.60
2018-06-03T23:17:38.575Z,7.77
2018-06-03T23:20:05.047Z,7.40
2018-06-03T23:22:31.432Z,7.10
2018-06-03T23:24:57.804Z,8.37
2018-06-03T23:27:24.152Z,7.93
2018-06-03T23:29:50.563Z,7.10
2018-06-03T23:32:16.945Z,7.00
2018-06-03T23:34:43.260Z,7.53
2018-06-03T23:37:11.228Z,7.13
2018-06-03T23:39:37.569Z,7.50
2018-06-03T23:42:03.896Z,7.33
2018-06-03T23:44:30.323Z,7.23
2018-06-03T23:46:56.783Z,7.17
2018-06-03T23:49:23.103Z,7.20
2018-06-03T23:51:49.507Z,7.47
2018-06-03T23:54:15.830Z,7.43
2018-06-03T23:59:14.720Z,7.60
